createdAt,value
2023-05-24T00:03:07.413Z,91.70
2023-05-24T00:05:41.280Z,91.80
2023-05-24T00:08:09.613Z,91.50
2023-05-24T00:10:37.319Z,91.30
2023-05-24T00:19:07.890Z,91.00
2023-05-24T00:24:25.494Z,91.30
2023-05-24T01:05:13.847Z,91.70
2023-05-24T01:08:11.244Z,91.80
2023-05-24T01:10:53.620Z,91.80
2023-05-24T01:35:16.324Z,91.40
2023-05-24T02:08:54.133Z,90.90
2023-05-24T02:11:23.754Z,90.80
2023-05-24T02:13:51.570Z,91.00
2023-05-24T02:16:24.046Z,91.20
2023-05-24T02:21:54.414Z,91.70
2023-05-24T02:24:35.114Z,92.00
2023-05-24T02:27:12.790Z,91.70
2023-05-24T02:29:44.834Z,91.70
2023-05-24T02:32:13.349Z,91.60
2023-05-24T02:37:30.381Z,91.60
2023-05-24T02:43:49.930Z,91.70
2023-05-24T02:52:57.610Z,92.10
2023-05-24T03:01:12.835Z,93.10
2023-05-24T03:03:47.598Z,93.30
2023-05-24T03:06:15.563Z,93.20
2023-05-24T03:11:37.093Z,93.10
2023-05-24T03:16:46.420Z,92.90
2023-05-24T03:19:14.758Z,92.80
2023-05-24T03:21:41.727Z,92.90
2023-05-24T03:24:10.495Z,93.00
2023-05-24T03:26:40.890Z,93.10
2023-05-24T04:16:16.709Z,93.10
2023-05-24T04:41:27.271Z,93.20
2023-05-24T04:43:56.102Z,92.90
2023-05-24T04:46:30.993Z,92.80
2023-05-24T04:48:59.921Z,92.80
2023-05-24T04:51:29.342Z,92.90
2023-05-24T04:54:08.850Z,92.90
2023-05-24T05:03:07.964Z,92.30
2023-05-24T05:06:00.142Z,91.90
2023-05-24T05:09:02.138Z,91.40
2023-05-24T05:11:30.750Z,91.50
2023-05-24T05:14:00.396Z,91.20
2023-05-24T05:16:30.334Z,91.40
2023-05-24T05:18:57.779Z,91.60
2023-05-24T05:21:24.770Z,91.80
2023-05-24T05:23:51.826Z,91.80
2023-05-24T05:26:18.832Z,91.60
2023-05-24T05:28:46.215Z,91.40
2023-05-24T05:31:15.535Z,91.20
2023-05-24T05:33:42.674Z,90.80
2023-05-24T05:36:19.018Z,90.80
2023-05-24T05:44:18.744Z,90.00
2023-05-24T05:55:02.135Z,89.20
2023-05-24T05:57:35.021Z,86.40
2023-05-24T06:00:31.979Z,84.40
2023-05-24T06:34:04.395Z,62.80
2023-05-24T06:36:41.542Z,62.60
2023-05-24T06:39:13.159Z,64.60
2023-05-24T06:41:48.141Z,62.50
2023-05-24T06:44:16.592Z,59.20
2023-05-24T06:46:45.850Z,56.80
2023-05-24T06:49:15.105Z,57.30
2023-05-24T06:51:43.021Z,58.50
2023-05-24T06:54:10.352Z,59.00
2023-05-24T06:56:37.333Z,58.00
2023-05-24T06:59:04.508Z,56.80
2023-05-24T07:01:31.846Z,56.10
2023-05-24T07:03:59.201Z,54.90
2023-05-24T07:06:27.148Z,56.80
2023-05-24T07:08:54.383Z,57.30
2023-05-24T07:11:21.786Z,58.80
2023-05-24T07:13:49.001Z,58.00
2023-05-24T07:16:16.337Z,56.60
2023-05-24T07:18:43.446Z,53.90
2023-05-24T07:21:10.681Z,52.40
2023-05-24T07:23:38.056Z,52.50
2023-05-24T07:26:05.847Z,52.10
2023-05-24T07:28:33.086Z,51.60
2023-05-24T07:31:00.496Z,51.70
2023-05-24T07:33:27.706Z,51.40
2023-05-24T07:35:54.929Z,48.50
2023-05-24T07:38:22.217Z,53.20
2023-05-24T07:40:49.418Z,53.30
2023-05-24T07:43:16.418Z,51.40
2023-05-24T07:45:43.610Z,52.10
2023-05-24T07:48:11.137Z,54.40
2023-05-24T07:50:38.925Z,54.70
2023-05-24T07:53:06.597Z,54.20
2023-05-24T07:55:34.001Z,52.80
2023-05-24T07:58:01.468Z,52.50
2023-05-24T08:00:28.610Z,50.50
2023-05-24T08:02:55.780Z,51.60
2023-05-24T08:05:23.003Z,51.50
2023-05-24T08:07:50.147Z,51.30
2023-05-24T08:10:17.312Z,51.10
2023-05-24T08:12:45.366Z,50.20
2023-05-24T08:15:12.383Z,51.70
2023-05-24T08:17:39.818Z,49.00
2023-05-24T08:20:09.941Z,48.40
2023-05-24T08:22:37.765Z,48.80
2023-05-24T08:25:06.431Z,49.70
2023-05-24T08:27:33.687Z,49.20
2023-05-24T08:30:00.451Z,50.50
2023-05-24T08:32:28.959Z,50.80
2023-05-24T08:35:14.833Z,49.40
2023-05-24T08:37:48.108Z,48.00
2023-05-24T08:40:15.371Z,46.90
2023-05-24T08:42:43.035Z,47.30
2023-05-24T08:45:13.113Z,47.50
2023-05-24T08:47:40.860Z,46.70
2023-05-24T08:50:08.852Z,46.50
2023-05-24T08:52:36.500Z,44.70
2023-05-24T08:55:07.654Z,46.80
2023-05-24T08:57:39.403Z,48.30
2023-05-24T09:00:09.549Z,47.50
2023-05-24T09:02:44.674Z,49.60
2023-05-24T09:05:14.639Z,54.00
2023-05-24T09:07:43.519Z,49.70
2023-05-24T09:10:11.348Z,50.00
2023-05-24T09:12:39.694Z,48.40
2023-05-24T09:15:08.318Z,50.60
2023-05-24T09:17:37.043Z,50.70
2023-05-24T09:20:07.245Z,48.50
2023-05-24T09:22:38.160Z,48.30
2023-05-24T09:25:08.137Z,47.90
2023-05-24T09:27:38.350Z,46.90
2023-05-24T09:30:10.334Z,49.20
2023-05-24T09:32:37.664Z,47.00
2023-05-24T09:35:09.454Z,46.10
2023-05-24T09:37:39.920Z,46.90
2023-05-24T09:40:10.979Z,47.30
2023-05-24T09:42:38.510Z,45.80
2023-05-24T09:45:09.529Z,46.10
2023-05-24T09:47:38.544Z,46.60
2023-05-24T09:50:11.734Z,47.10
2023-05-24T09:52:38.980Z,47.90
2023-05-24T09:55:18.090Z,50.70
2023-05-24T09:57:55.704Z,47.70
2023-05-24T10:00:25.432Z,46.70
2023-05-24T10:03:00.970Z,46.40
2023-05-24T10:05:28.753Z,46.40
2023-05-24T10:07:57.076Z,45.60
2023-05-24T10:10:31.890Z,48.40
2023-05-24T10:13:00.432Z,46.30
2023-05-24T10:15:28.287Z,46.40
2023-05-24T10:18:11.379Z,43.40
2023-05-24T10:20:42.619Z,46.20
2023-05-24T10:23:18.730Z,47.00
2023-05-24T10:25:51.847Z,45.90
2023-05-24T10:28:21.514Z,48.30
2023-05-24T10:31:05.943Z,51.00
2023-05-24T10:33:37.493Z,51.00
2023-05-24T10:36:13.852Z,52.40
2023-05-24T10:38:41.134Z,53.00
2023-05-24T10:41:08.827Z,56.40
2023-05-24T10:43:36.673Z,57.60
2023-05-24T10:46:05.142Z,55.60
2023-05-24T10:48:32.867Z,56.70
2023-05-24T10:51:02.178Z,55.90
2023-05-24T10:53:29.193Z,56.90
2023-05-24T10:55:58.625Z,53.70
2023-05-24T10:58:46.354Z,54.60
2023-05-24T11:01:28.153Z,54.10
2023-05-24T11:04:18.306Z,52.60
2023-05-24T11:06:50.335Z,52.60
2023-05-24T11:09:17.721Z,52.60
2023-05-24T11:11:46.534Z,56.30
2023-05-24T11:14:14.840Z,53.50
2023-05-24T11:16:46.234Z,54.00
2023-05-24T11:19:22.075Z,54.80
2023-05-24T11:21:50.806Z,54.20
2023-05-24T11:24:19.343Z,52.20
2023-05-24T11:26:47.100Z,52.90
2023-05-24T11:29:17.819Z,52.30
2023-05-24T11:31:57.746Z,50.50
2023-05-24T11:34:27.273Z,50.30
2023-05-24T11:36:55.347Z,52.00
2023-05-24T11:39:23.811Z,52.80
2023-05-24T11:41:51.007Z,52.30
2023-05-24T11:44:21.514Z,56.00
2023-05-24T11:46:48.570Z,53.30
2023-05-24T11:49:18.680Z,51.70
2023-05-24T11:51:46.092Z,51.00
2023-05-24T11:54:13.125Z,54.00
2023-05-24T11:56:40.185Z,55.50
2023-05-24T11:59:18.133Z,57.50
2023-05-24T12:01:45.098Z,55.70
2023-05-24T12:04:12.933Z,56.20
2023-05-24T12:06:42.974Z,57.80
2023-05-24T12:09:13.277Z,59.10
2023-05-24T12:11:42.132Z,57.70
2023-05-24T12:14:27.599Z,57.60
2023-05-24T12:16:56.396Z,59.00
2023-05-24T12:19:34.095Z,59.50
2023-05-24T12:22:05.200Z,59.70
2023-05-24T12:24:32.878Z,55.80
2023-05-24T12:27:07.595Z,55.10
2023-05-24T12:29:36.511Z,58.00
2023-05-24T12:32:04.126Z,57.60
2023-05-24T12:34:31.068Z,59.60
2023-05-24T12:36:58.436Z,60.40
2023-05-24T12:39:32.080Z,61.20
2023-05-24T12:42:01.887Z,61.60
2023-05-24T12:44:36.760Z,61.40
2023-05-24T12:47:06.778Z,58.90
2023-05-24T12:49:34.006Z,59.30
2023-05-24T12:52:04.363Z,58.00
2023-05-24T12:54:31.609Z,60.80
2023-05-24T12:57:05.247Z,61.50
2023-05-24T12:59:32.921Z,63.80
2023-05-24T13:02:00.440Z,65.00
2023-05-24T13:04:28.068Z,67.30
2023-05-24T13:06:55.850Z,69.60
2023-05-24T13:09:23.707Z,69.70
2023-05-24T13:11:52.265Z,70.50
2023-05-24T13:14:20.012Z,71.30
2023-05-24T13:16:48.066Z,69.30
2023-05-24T13:19:15.111Z,72.10
2023-05-24T13:21:42.812Z,69.80
2023-05-24T13:24:10.006Z,71.30
2023-05-24T13:26:38.111Z,72.90
2023-05-24T13:31:41.120Z,74.30
2023-05-24T13:34:09.245Z,73.80
2023-05-24T13:36:38.090Z,75.40
2023-05-24T13:39:15.625Z,75.80
2023-05-24T13:41:44.351Z,72.70
2023-05-24T13:44:15.769Z,71.40
2023-05-24T13:46:43.761Z,75.20
2023-05-24T13:49:12.053Z,72.70
2023-05-24T13:51:39.595Z,73.20
2023-05-24T13:54:07.180Z,74.30
2023-05-24T13:56:35.030Z,75.00
2023-05-24T13:59:03.439Z,74.30
2023-05-24T14:01:31.205Z,73.20
2023-05-24T14:03:58.427Z,72.60
2023-05-24T14:06:25.457Z,70.90
2023-05-24T14:08:52.654Z,69.00
2023-05-24T14:11:19.811Z,70.40
2023-05-24T14:16:18.475Z,69.80
2023-05-24T14:18:46.020Z,69.20
2023-05-24T14:21:13.011Z,68.60
2023-05-24T14:23:40.024Z,71.00
2023-05-24T14:26:06.898Z,72.70
2023-05-24T14:28:33.743Z,69.40
2023-05-24T14:31:00.894Z,69.60
2023-05-24T14:33:27.878Z,68.30
2023-05-24T14:35:54.981Z,69.90
2023-05-24T14:38:23.922Z,70.90
2023-05-24T14:40:51.362Z,69.80
2023-05-24T14:44:07.289Z,69.00
2023-05-24T14:47:29.698Z,67.30
2023-05-24T14:49:56.740Z,68.70
2023-05-24T14:52:23.667Z,70.00
2023-05-24T14:54:50.661Z,68.60
2023-05-24T14:57:17.528Z,70.40
2023-05-24T14:59:44.409Z,69.90
2023-05-24T15:02:11.701Z,71.00
2023-05-24T15:04:38.766Z,71.20
2023-05-24T15:07:05.784Z,72.60
2023-05-24T15:09:32.829Z,72.50
2023-05-24T15:11:59.667Z,71.60
2023-05-24T15:14:26.660Z,72.10
2023-05-24T15:16:53.916Z,71.50
2023-05-24T15:19:21.248Z,71.80
2023-05-24T15:21:48.183Z,70.80
2023-05-24T15:24:15.329Z,72.40
2023-05-24T15:26:42.259Z,73.70
2023-05-24T15:29:09.739Z,74.80
2023-05-24T15:31:36.795Z,75.10
2023-05-24T15:34:05.049Z,75.40
2023-05-24T15:36:32.628Z,74.80
2023-05-24T15:39:02.281Z,71.90
2023-05-24T15:41:29.283Z,71.80
2023-05-24T15:43:56.283Z,72.50
2023-05-24T15:46:23.412Z,73.40
2023-05-24T15:48:50.361Z,73.30
2023-05-24T15:53:49.816Z,73.40
2023-05-24T15:56:16.924Z,72.30
2023-05-24T15:58:44.070Z,71.70
2023-05-24T16:01:11.090Z,69.00
2023-05-24T16:03:38.458Z,69.60
2023-05-24T16:06:06.588Z,68.90
2023-05-24T16:08:33.553Z,70.20
2023-05-24T16:11:00.604Z,71.00
2023-05-24T16:13:27.700Z,71.80
2023-05-24T16:15:54.783Z,72.00
2023-05-24T16:18:27.038Z,72.80
2023-05-24T16:20:53.920Z,71.60
2023-05-24T16:23:23.267Z,71.90
2023-05-24T16:25:50.447Z,72.70
2023-05-24T16:28:17.764Z,72.80
2023-05-24T16:30:45.147Z,72.40
2023-05-24T16:33:12.248Z,72.40
2023-05-24T16:35:39.290Z,71.70
2023-05-24T16:38:06.198Z,74.10
2023-05-24T16:40:39.802Z,74.20
2023-05-24T16:43:06.790Z,72.70
2023-05-24T16:45:33.716Z,71.40
2023-05-24T16:48:01.217Z,71.70
2023-05-24T16:50:28.093Z,72.80
2023-05-24T16:52:58.222Z,73.80
2023-05-24T16:55:25.221Z,73.30
2023-05-24T16:57:52.165Z,73.50
2023-05-24T17:00:19.710Z,75.10
2023-05-24T17:02:46.612Z,76.20
2023-05-24T17:05:13.668Z,77.00
2023-05-24T17:07:40.818Z,79.10
2023-05-24T17:10:08.203Z,79.60
2023-05-24T17:12:35.251Z,80.10
2023-05-24T17:15:02.198Z,79.20
2023-05-24T17:17:29.068Z,78.20
2023-05-24T17:19:56.429Z,79.10
2023-05-24T17:22:23.344Z,76.90
2023-05-24T17:24:50.324Z,77.10
2023-05-24T17:27:22.185Z,76.10
2023-05-24T17:29:49.530Z,75.90
2023-05-24T17:32:16.361Z,75.50
2023-05-24T17:34:43.686Z,74.50
2023-05-24T17:37:10.591Z,75.30
2023-05-24T17:39:38.791Z,75.70
2023-05-24T17:42:06.907Z,76.60
2023-05-24T17:44:33.925Z,76.30
2023-05-24T17:47:02.071Z,77.50
2023-05-24T17:49:32.442Z,78.00
2023-05-24T17:52:01.424Z,78.80
2023-05-24T17:54:28.476Z,77.80
2023-05-24T17:56:55.406Z,77.20
2023-05-24T17:59:32.522Z,78.20
2023-05-24T18:01:59.524Z,79.10
2023-05-24T18:04:38.333Z,79.40
2023-05-24T18:07:15.090Z,78.40
2023-05-24T18:09:41.919Z,78.80
2023-05-24T18:12:08.933Z,78.80
2023-05-24T18:14:35.885Z,78.50
2023-05-24T18:17:03.043Z,78.40
2023-05-24T18:19:30.171Z,78.60
2023-05-24T18:21:58.079Z,78.60
2023-05-24T18:24:24.956Z,78.30
2023-05-24T18:26:51.900Z,78.20
2023-05-24T18:29:18.727Z,77.80
2023-05-24T18:31:46.397Z,77.70
2023-05-24T18:34:13.739Z,78.20
2023-05-24T18:36:40.828Z,78.70
2023-05-24T18:39:07.781Z,79.40
2023-05-24T18:41:34.601Z,79.80
2023-05-24T18:44:01.647Z,79.80
2023-05-24T18:46:29.624Z,80.50
2023-05-24T18:48:58.654Z,80.30
2023-05-24T18:51:25.886Z,80.70
2023-05-24T18:53:52.811Z,79.90
2023-05-24T18:56:19.730Z,80.00
2023-05-24T18:58:49.703Z,80.50
2023-05-24T19:01:17.546Z,81.00
2023-05-24T19:03:44.698Z,82.20
2023-05-24T19:06:12.880Z,83.60
2023-05-24T19:08:40.112Z,84.00
2023-05-24T19:11:07.066Z,84.40
2023-05-24T19:13:34.151Z,84.80
2023-05-24T19:16:01.566Z,85.10
2023-05-24T19:18:28.575Z,85.60
2023-05-24T19:20:55.844Z,85.90
2023-05-24T19:23:22.808Z,86.40
2023-05-24T19:25:50.533Z,86.40
2023-05-24T19:28:20.262Z,86.20
2023-05-24T19:30:47.237Z,86.70
2023-05-24T19:33:14.379Z,86.90
2023-05-24T19:35:41.379Z,87.40
2023-05-24T19:38:08.386Z,87.70
2023-05-24T19:40:35.385Z,88.10
2023-05-24T19:43:02.603Z,88.70
2023-05-24T19:45:29.606Z,88.80
2023-05-24T19:47:59.084Z,89.10
2023-05-24T19:50:29.001Z,88.50
2023-05-24T19:52:57.577Z,89.10
2023-05-24T19:55:26.791Z,89.70
2023-05-24T19:57:53.828Z,90.50
2023-05-24T20:00:21.320Z,90.10
2023-05-24T20:02:48.405Z,90.20
2023-05-24T20:05:17.544Z,90.00
2023-05-24T20:07:44.481Z,90.00
2023-05-24T20:10:12.029Z,90.20
2023-05-24T20:12:39.101Z,90.40
2023-05-24T20:15:08.187Z,90.60
2023-05-24T20:17:35.183Z,90.70
2023-05-24T20:20:03.973Z,90.80
2023-05-24T20:22:31.280Z,91.00
2023-05-24T20:24:58.230Z,91.30
2023-05-24T20:27:25.123Z,91.50
2023-05-24T20:29:52.127Z,91.50
2023-05-24T20:32:19.242Z,91.70
2023-05-24T20:34:46.249Z,91.70
2023-05-24T20:37:13.207Z,91.80
2023-05-24T20:39:40.115Z,92.00
2023-05-24T20:42:08.194Z,92.10
2023-05-24T20:44:35.144Z,92.20
2023-05-24T20:47:02.149Z,92.50
2023-05-24T20:49:29.869Z,92.80
2023-05-24T20:51:56.716Z,92.70
2023-05-24T20:54:23.789Z,92.60
2023-05-24T20:56:51.163Z,92.70
2023-05-24T20:59:18.066Z,92.80
2023-05-24T21:02:06.109Z,92.80
2023-05-24T21:04:39.197Z,92.90
2023-05-24T21:07:07.874Z,93.20
2023-05-24T21:09:34.882Z,93.20
2023-05-24T21:12:02.355Z,93.40
2023-05-24T21:14:30.694Z,93.60
2023-05-24T21:16:57.620Z,93.80
2023-05-24T21:19:24.579Z,94.00
2023-05-24T21:21:51.535Z,94.30
2023-05-24T21:24:19.032Z,94.30
2023-05-24T21:26:45.994Z,94.60
2023-05-24T21:29:13.266Z,94.70
2023-05-24T21:31:41.152Z,94.70
2023-05-24T21:34:08.208Z,94.60
2023-05-24T21:36:35.206Z,94.60
2023-05-24T21:39:07.510Z,94.70
2023-05-24T21:41:35.234Z,94.60
2023-05-24T21:44:02.174Z,94.50
2023-05-24T21:46:29.386Z,94.40
2023-05-24T21:48:57.394Z,94.30
2023-05-24T21:51:24.374Z,94.10
2023-05-24T21:53:52.478Z,94.10
2023-05-24T21:56:19.705Z,94.40
2023-05-24T21:58:46.646Z,94.40
2023-05-24T22:01:13.636Z,94.40
2023-05-24T22:03:40.859Z,94.50
2023-05-24T22:06:08.607Z,94.70
2023-05-24T22:08:35.573Z,94.50
2023-05-24T22:11:02.474Z,94.50
2023-05-24T22:13:29.397Z,94.50
2023-05-24T22:15:57.001Z,94.60
2023-05-24T22:18:28.337Z,94.60
2023-05-24T22:20:58.379Z,94.50
2023-05-24T22:23:28.405Z,94.50
2023-05-24T22:25:55.804Z,94.50
2023-05-24T22:28:24.694Z,94.40
2023-05-24T22:30:52.440Z,94.50
2023-05-24T22:33:20.088Z,94.60
2023-05-24T22:35:47.348Z,94.60
2023-05-24T22:38:14.288Z,94.40
2023-05-24T22:40:42.353Z,94.40
2023-05-24T22:43:09.703Z,94.40
2023-05-24T22:45:37.041Z,94.30
2023-05-24T22:48:04.052Z,94.20
2023-05-24T22:50:30.923Z,94.20
2023-05-24T22:52:58.772Z,94.20
2023-05-24T22:55:26.250Z,94.20
2023-05-24T22:57:53.503Z,94.20
2023-05-24T23:00:20.777Z,94.00
2023-05-24T23:02:47.854Z,94.10
2023-05-24T23:05:17.996Z,94.30
2023-05-24T23:07:49.395Z,94.30
2023-05-24T23:10:18.666Z,94.50
2023-05-24T23:12:46.145Z,94.60
2023-05-24T23:15:16.831Z,94.40
2023-05-24T23:17:44.184Z,94.50
2023-05-24T23:20:14.433Z,94.70
2023-05-24T23:22:41.402Z,94.90
2023-05-24T23:25:09.107Z,95.00
2023-05-24T23:27:36.004Z,94.80
2023-05-24T23:30:02.969Z,95.00
2023-05-24T23:32:29.907Z,95.10
2023-05-24T23:34:57.020Z,95.20
2023-05-24T23:37:23.951Z,95.30
2023-05-24T23:39:50.876Z,95.50
2023-05-24T23:42:17.741Z,95.30
2023-05-24T23:44:45.315Z,95.40
2023-05-24T23:47:12.311Z,95.50
2023-05-24T23:49:39.394Z,95.60
2023-05-24T23:52:06.862Z,95.90
2023-05-24T23:54:34.082Z,95.80
2023-05-24T23:57:01.314Z,95.70
2023-05-24T23:59:28.262Z,95.70
